sensor_id;sensor_type;location;lat;lon;timestamp;pressure;altitude;pressure_sealevel;temperature;humidity
66396;BME280;72184;51.378;-1.342;2024-03-08T00:01:53;100006.91;;;20.07;31.71
66396;BME280;72184;51.378;-1.342;2024-03-08T00:04:20;100005.24;;;20.07;31.72
66396;BME280;72184;51.378;-1.342;2024-03-08T00:06:47;100003.42;;;20.06;31.73
66396;BME280;72184;51.378;-1.342;2024-03-08T00:09:14;99999.53;;;20.06;31.73
66396;BME280;72184;51.378;-1.342;2024-03-08T00:11:42;99998.56;;;20.06;31.72
66396;BME280;72184;51.378;-1.342;2024-03-08T00:14:09;100000.49;;;20.05;31.72
66396;BME280;72184;51.378;-1.342;2024-03-08T00:16:37;99993.07;;;19.82;31.74
66396;BME280;72184;51.378;-1.342;2024-03-08T00:19:04;99987.92;;;19.82;31.74
66396;BME280;72184;51.378;-1.342;2024-03-08T00:21:31;99986.33;;;20.03;31.74
66396;BME280;72184;51.378;-1.342;2024-03-08T00:23:59;99982.71;;;20.02;31.74
66396;BME280;72184;51.378;-1.342;2024-03-08T00:26:26;99980.45;;;20.02;31.76
66396;BME280;72184;51.378;-1.342;2024-03-08T00:28:53;99980.02;;;20.01;31.76
66396;BME280;72184;51.378;-1.342;2024-03-08T00:31:20;99978.84;;;20.02;31.77
66396;BME280;72184;51.378;-1.342;2024-03-08T00:33:47;99975.22;;;20.02;31.77
66396;BME280;72184;51.378;-1.342;2024-03-08T00:36:15;99977.99;;;20.02;31.77
66396;BME280;72184;51.378;-1.342;2024-03-08T00:38:42;99973.25;;;20.01;31.78
66396;BME280;72184;51.378;-1.342;2024-03-08T00:41:09;99971.85;;;19.79;31.79
66396;BME280;72184;51.378;-1.342;2024-03-08T00:43:37;99970.63;;;20.00;31.80
66396;BME280;72184;51.378;-1.342;2024-03-08T00:46:04;99963.86;;;20.00;31.82
66396;BME280;72184;51.378;-1.342;2024-03-08T00:48:32;99963.78;;;20.00;31.81
66396;BME280;72184;51.378;-1.342;2024-03-08T00:50:59;99966.10;;;20.01;31.83
66396;BME280;72184;51.378;-1.342;2024-03-08T00:53:26;99966.78;;;20.01;31.83
66396;BME280;72184;51.378;-1.342;2024-03-08T00:55:53;99957.53;;;20.02;31.84
66396;BME280;72184;51.378;-1.342;2024-03-08T00:58:20;99953.40;;;20.02;31.83
66396;BME280;72184;51.378;-1.342;2024-03-08T01:00:48;99948.47;;;20.03;31.83
66396;BME280;72184;51.378;-1.342;2024-03-08T01:03:16;99946.40;;;20.03;31.85
66396;BME280;72184;51.378;-1.342;2024-03-08T01:05:43;99940.05;;;20.04;31.83
66396;BME280;72184;51.378;-1.342;2024-03-08T01:08:10;99935.45;;;20.03;31.85
66396;BME280;72184;51.378;-1.342;2024-03-08T01:10:37;99933.89;;;20.04;31.86
66396;BME280;72184;51.378;-1.342;2024-03-08T01:13:04;99933.26;;;20.04;31.86
66396;BME280;72184;51.378;-1.342;2024-03-08T01:15:32;99924.48;;;20.04;31.89
66396;BME280;72184;51.378;-1.342;2024-03-08T01:17:59;99912.85;;;20.04;31.89
66396;BME280;72184;51.378;-1.342;2024-03-08T01:20:26;99913.66;;;20.05;31.89
66396;BME280;72184;51.378;-1.342;2024-03-08T01:22:53;99905.48;;;20.05;31.91
66396;BME280;72184;51.378;-1.342;2024-03-08T01:25:20;99904.28;;;20.06;31.90
66396;BME280;72184;51.378;-1.342;2024-03-08T01:27:47;99897.32;;;20.06;31.92
66396;BME280;72184;51.378;-1.342;2024-03-08T01:30:15;99897.69;;;20.06;31.95
66396;BME280;72184;51.378;-1.342;2024-03-08T01:32:42;99895.31;;;20.08;31.93
66396;BME280;72184;51.378;-1.342;2024-03-08T01:35:09;99891.16;;;20.08;31.95
66396;BME280;72184;51.378;-1.342;2024-03-08T01:37:37;99891.33;;;20.10;31.96
66396;BME280;72184;51.378;-1.342;2024-03-08T01:40:06;99884.70;;;20.11;31.97
66396;BME280;72184;51.378;-1.342;2024-03-08T01:42:34;99881.76;;;20.11;31.98
66396;BME280;72184;51.378;-1.342;2024-03-08T01:45:01;99873.92;;;20.11;31.98
66396;BME280;72184;51.378;-1.342;2024-03-08T01:47:28;99869.42;;;20.11;31.99
66396;BME280;72184;51.378;-1.342;2024-03-08T01:49:55;99866.43;;;20.12;31.96
66396;BME280;72184;51.378;-1.342;2024-03-08T01:52:22;99862.55;;;19.90;32.01
66396;BME280;72184;51.378;-1.342;2024-03-08T01:54:50;99858.35;;;20.13;32.00
66396;BME280;72184;51.378;-1.342;2024-03-08T01:57:17;99852.05;;;20.13;32.00
66396;BME280;72184;51.378;-1.342;2024-03-08T01:59:44;99844.07;;;20.13;32.02
66396;BME280;72184;51.378;-1.342;2024-03-08T02:02:11;99839.11;;;20.14;32.02
66396;BME280;72184;51.378;-1.342;2024-03-08T02:04:41;99829.80;;;20.16;32.00
66396;BME280;72184;51.378;-1.342;2024-03-08T02:07:09;99825.31;;;19.94;32.00
66396;BME280;72184;51.378;-1.342;2024-03-08T02:09:37;99813.29;;;19.94;32.00
66396;BME280;72184;51.378;-1.342;2024-03-08T02:12:04;99814.09;;;20.17;32.00
66396;BME280;72184;51.378;-1.342;2024-03-08T02:14:32;99810.71;;;20.17;32.00
66396;BME280;72184;51.378;-1.342;2024-03-08T02:17:00;99805.19;;;20.17;32.00
66396;BME280;72184;51.378;-1.342;2024-03-08T02:19:27;99799.41;;;20.17;32.02
66396;BME280;72184;51.378;-1.342;2024-03-08T02:21:55;99794.25;;;20.18;32.01
66396;BME280;72184;51.378;-1.342;2024-03-08T02:24:23;99789.94;;;20.18;32.00
66396;BME280;72184;51.378;-1.342;2024-03-08T02:26:51;99785.87;;;20.19;31.99
66396;BME280;72184;51.378;-1.342;2024-03-08T02:29:18;99784.85;;;20.19;32.00
66396;BME280;72184;51.378;-1.342;2024-03-08T02:31:46;99778.15;;;20.20;31.99
66396;BME280;72184;51.378;-1.342;2024-03-08T02:34:14;99772.01;;;20.22;31.97
66396;BME280;72184;51.378;-1.342;2024-03-08T02:36:41;99764.86;;;20.23;31.94
66396;BME280;72184;51.378;-1.342;2024-03-08T02:39:08;99758.26;;;20.22;31.94
66396;BME280;72184;51.378;-1.342;2024-03-08T02:41:35;99755.29;;;20.21;31.93
66396;BME280;72184;51.378;-1.342;2024-03-08T02:44:03;99747.04;;;20.20;31.94
66396;BME280;72184;51.378;-1.342;2024-03-08T02:46:30;99748.22;;;19.98;31.94
66396;BME280;72184;51.378;-1.342;2024-03-08T02:48:57;99744.96;;;20.20;31.94
66396;BME280;72184;51.378;-1.342;2024-03-08T02:51:24;99744.20;;;19.98;31.95
66396;BME280;72184;51.378;-1.342;2024-03-08T02:53:51;99740.14;;;20.20;31.93
66396;BME280;72184;51.378;-1.342;2024-03-08T02:56:18;99740.43;;;19.97;31.94
66396;BME280;72184;51.378;-1.342;2024-03-08T02:58:45;99737.47;;;20.20;31.93
66396;BME280;72184;51.378;-1.342;2024-03-08T03:01:13;99732.06;;;20.20;31.94
66396;BME280;72184;51.378;-1.342;2024-03-08T03:03:41;99725.74;;;19.98;31.93
66396;BME280;72184;51.378;-1.342;2024-03-08T03:06:08;99726.02;;;20.20;31.92
66396;BME280;72184;51.378;-1.342;2024-03-08T03:08:36;99722.95;;;20.19;31.91
66396;BME280;72184;51.378;-1.342;2024-03-08T03:11:03;99724.18;;;20.18;31.92
66396;BME280;72184;51.378;-1.342;2024-03-08T03:13:31;99721.75;;;20.19;31.91
66396;BME280;72184;51.378;-1.342;2024-03-08T03:15:58;99722.24;;;20.19;31.91
66396;BME280;72184;51.378;-1.342;2024-03-08T03:18:25;99718.61;;;20.19;31.91
66396;BME280;72184;51.378;-1.342;2024-03-08T03:20:57;99711.92;;;20.18;31.91
66396;BME280;72184;51.378;-1.342;2024-03-08T03:23:24;99709.81;;;20.18;31.91
66396;BME280;72184;51.378;-1.342;2024-03-08T03:25:52;99707.98;;;20.18;31.91
66396;BME280;72184;51.378;-1.342;2024-03-08T03:28:19;99709.57;;;20.17;31.91
66396;BME280;72184;51.378;-1.342;2024-03-08T03:30:46;99707.24;;;20.17;31.91
66396;BME280;72184;51.378;-1.342;2024-03-08T03:33:13;99706.15;;;20.16;31.91
66396;BME280;72184;51.378;-1.342;2024-03-08T03:35:41;99703.69;;;19.93;31.91
66396;BME280;72184;51.378;-1.342;2024-03-08T03:38:09;99699.82;;;20.14;31.92
66396;BME280;72184;51.378;-1.342;2024-03-08T03:40:38;99691.27;;;20.14;31.91
66396;BME280;72184;51.378;-1.342;2024-03-08T03:43:05;99691.43;;;19.91;31.92
66396;BME280;72184;51.378;-1.342;2024-03-08T03:45:32;99685.38;;;20.13;31.92
66396;BME280;72184;51.378;-1.342;2024-03-08T03:47:59;99680.92;;;19.90;31.92
66396;BME280;72184;51.378;-1.342;2024-03-08T03:50:26;99674.47;;;20.12;31.93
66396;BME280;72184;51.378;-1.342;2024-03-08T03:52:59;99669.69;;;20.12;31.92
66396;BME280;72184;51.378;-1.342;2024-03-08T03:55:26;99667.04;;;20.11;31.93
66396;BME280;72184;51.378;-1.342;2024-03-08T03:57:53;99665.61;;;20.11;31.92
66396;BME280;72184;51.378;-1.342;2024-03-08T04:00:20;99663.62;;;20.11;31.91
66396;BME280;72184;51.378;-1.342;2024-03-08T04:02:47;99666.28;;;20.11;31.90
66396;BME280;72184;51.378;-1.342;2024-03-08T04:05:15;99665.41;;;20.10;31.90
66396;BME280;72184;51.378;-1.342;2024-03-08T04:07:42;99661.77;;;19.89;31.91
66396;BME280;72184;51.378;-1.342;2024-03-08T04:10:12;99657.07;;;20.11;31.89
66396;BME280;72184;51.378;-1.342;2024-03-08T04:12:39;99653.61;;;20.11;31.89
66396;BME280;72184;51.378;-1.342;2024-03-08T04:15:07;99655.01;;;20.10;31.89
66396;BME280;72184;51.378;-1.342;2024-03-08T04:17:35;99651.08;;;19.87;31.89
66396;BME280;72184;51.378;-1.342;2024-03-08T04:20:02;99645.09;;;20.08;31.88
66396;BME280;72184;51.378;-1.342;2024-03-08T04:22:30;99641.69;;;20.08;31.89
66396;BME280;72184;51.378;-1.342;2024-03-08T04:24:57;99638.65;;;20.09;31.86
66396;BME280;72184;51.378;-1.342;2024-03-08T04:27:25;99634.16;;;19.86;31.84
66396;BME280;72184;51.378;-1.342;2024-03-08T04:29:52;99633.71;;;20.08;31.83
66396;BME280;72184;51.378;-1.342;2024-03-08T04:32:19;99629.33;;;20.09;31.84
66396;BME280;72184;51.378;-1.342;2024-03-08T04:34:46;99626.08;;;19.85;31.84
66396;BME280;72184;51.378;-1.342;2024-03-08T04:37:13;99625.57;;;20.07;31.83
66396;BME280;72184;51.378;-1.342;2024-03-08T04:39:40;99622.25;;;20.08;31.83
66396;BME280;72184;51.378;-1.342;2024-03-08T04:42:08;99618.16;;;20.06;31.83
66396;BME280;72184;51.378;-1.342;2024-03-08T04:44:36;99616.55;;;20.05;31.83
66396;BME280;72184;51.378;-1.342;2024-03-08T04:47:04;99614.28;;;19.83;31.82
66396;BME280;72184;51.378;-1.342;2024-03-08T04:49:32;99607.09;;;20.03;31.82
66396;BME280;72184;51.378;-1.342;2024-03-08T04:52:00;99606.14;;;20.02;31.82
66396;BME280;72184;51.378;-1.342;2024-03-08T04:54:28;99602.69;;;20.01;31.82
66396;BME280;72184;51.378;-1.342;2024-03-08T04:56:55;99603.04;;;20.00;31.82
66396;BME280;72184;51.378;-1.342;2024-03-08T04:59:22;99602.97;;;19.99;31.81
66396;BME280;72184;51.378;-1.342;2024-03-08T05:01:49;99598.82;;;19.99;31.80
66396;BME280;72184;51.378;-1.342;2024-03-08T05:04:16;99597.93;;;19.98;31.81
66396;BME280;72184;51.378;-1.342;2024-03-08T05:06:44;99602.09;;;19.97;31.82
66396;BME280;72184;51.378;-1.342;2024-03-08T05:09:11;99602.01;;;19.97;31.80
66396;BME280;72184;51.378;-1.342;2024-03-08T05:11:38;99600.76;;;19.75;31.82
66396;BME280;72184;51.378;-1.342;2024-03-08T05:14:05;99594.87;;;19.97;31.80
66396;BME280;72184;51.378;-1.342;2024-03-08T05:16:32;99589.12;;;20.23;31.79
66396;BME280;72184;51.378;-1.342;2024-03-08T05:19:00;99586.89;;;19.96;31.79
66396;BME280;72184;51.378;-1.342;2024-03-08T05:21:27;99585.56;;;19.95;31.79
66396;BME280;72184;51.378;-1.342;2024-03-08T05:23:54;99583.36;;;19.94;31.79
66396;BME280;72184;51.378;-1.342;2024-03-08T05:26:21;99582.50;;;19.71;31.78
66396;BME280;72184;51.378;-1.342;2024-03-08T05:28:48;99581.93;;;19.93;31.76
66396;BME280;72184;51.378;-1.342;2024-03-08T05:31:19;99582.49;;;19.92;31.76
66396;BME280;72184;51.378;-1.342;2024-03-08T05:33:47;99581.40;;;19.69;31.76
66396;BME280;72184;51.378;-1.342;2024-03-08T05:36:14;99573.55;;;20.17;31.76
66396;BME280;72184;51.378;-1.342;2024-03-08T05:38:41;99567.16;;;19.90;31.74
66396;BME280;72184;51.378;-1.342;2024-03-08T05:41:08;99562.13;;;19.89;31.73
66396;BME280;72184;51.378;-1.342;2024-03-08T05:43:36;99564.77;;;19.88;31.72
66396;BME280;72184;51.378;-1.342;2024-03-08T05:46:03;99560.13;;;19.87;31.73
66396;BME280;72184;51.378;-1.342;2024-03-08T05:48:30;99555.22;;;19.86;31.72
66396;BME280;72184;51.378;-1.342;2024-03-08T05:50:57;99555.41;;;19.85;31.72
66396;BME280;72184;51.378;-1.342;2024-03-08T05:53:24;99553.53;;;19.85;31.72
66396;BME280;72184;51.378;-1.342;2024-03-08T05:55:51;99549.06;;;19.84;31.71
66396;BME280;72184;51.378;-1.342;2024-03-08T05:58:19;99550.73;;;19.84;31.69
66396;BME280;72184;51.378;-1.342;2024-03-08T06:00:46;99549.05;;;19.84;31.69
66396;BME280;72184;51.378;-1.342;2024-03-08T06:03:13;99546.16;;;19.83;31.69
66396;BME280;72184;51.378;-1.342;2024-03-08T06:05:40;99541.71;;;19.82;31.68
66396;BME280;72184;51.378;-1.342;2024-03-08T06:08:12;99536.77;;;20.08;31.69
66396;BME280;72184;51.378;-1.342;2024-03-08T06:10:40;99530.31;;;19.80;31.68
66396;BME280;72184;51.378;-1.342;2024-03-08T06:13:07;99529.93;;;19.79;31.67
66396;BME280;72184;51.378;-1.342;2024-03-08T06:15:34;99525.52;;;19.78;31.69
66396;BME280;72184;51.378;-1.342;2024-03-08T06:18:01;99523.67;;;19.77;31.70
66396;BME280;72184;51.378;-1.342;2024-03-08T06:20:29;99522.41;;;19.53;31.71
66396;BME280;72184;51.378;-1.342;2024-03-08T06:22:56;99523.13;;;19.75;31.73
66396;BME280;72184;51.378;-1.342;2024-03-08T06:25:23;99519.76;;;19.75;31.71
66396;BME280;72184;51.378;-1.342;2024-03-08T06:27:51;99517.82;;;19.76;31.72
66396;BME280;72184;51.378;-1.342;2024-03-08T06:30:18;99515.25;;;19.76;31.72
66396;BME280;72184;51.378;-1.342;2024-03-08T06:32:45;99517.35;;;19.76;31.72
66396;BME280;72184;51.378;-1.342;2024-03-08T06:35:12;99516.66;;;19.75;31.71
66396;BME280;72184;51.378;-1.342;2024-03-08T06:37:39;99516.17;;;19.75;31.71
66396;BME280;72184;51.378;-1.342;2024-03-08T06:40:07;99512.31;;;19.75;31.71
66396;BME280;72184;51.378;-1.342;2024-03-08T06:42:34;99516.50;;;19.74;31.70
66396;BME280;72184;51.378;-1.342;2024-03-08T06:45:02;99510.05;;;19.74;31.71
66396;BME280;72184;51.378;-1.342;2024-03-08T06:47:30;99510.65;;;19.73;31.74
66396;BME280;72184;51.378;-1.342;2024-03-08T06:49:57;99513.52;;;19.74;31.77
66396;BME280;72184;51.378;-1.342;2024-03-08T06:52:24;99508.88;;;19.74;31.77
66396;BME280;72184;51.378;-1.342;2024-03-08T06:54:51;99508.97;;;19.72;31.78
66396;BME280;72184;51.378;-1.342;2024-03-08T06:57:18;99515.79;;;19.72;31.80
66396;BME280;72184;51.378;-1.342;2024-03-08T06:59:45;99522.69;;;19.71;31.83
66396;BME280;72184;51.378;-1.342;2024-03-08T07:02:12;99519.19;;;19.70;31.84
66396;BME280;72184;51.378;-1.342;2024-03-08T07:04:40;99523.96;;;19.96;31.86
66396;BME280;72184;51.378;-1.342;2024-03-08T07:07:07;99527.69;;;19.70;31.89
66396;BME280;72184;51.378;-1.342;2024-03-08T07:09:34;99530.49;;;19.70;31.90
66396;BME280;72184;51.378;-1.342;2024-03-08T07:12:01;99529.91;;;19.70;31.93
66396;BME280;72184;51.378;-1.342;2024-03-08T07:14:28;99525.97;;;19.70;31.96
66396;BME280;72184;51.378;-1.342;2024-03-08T07:16:55;99534.59;;;19.70;31.97
66396;BME280;72184;51.378;-1.342;2024-03-08T07:19:22;99533.60;;;19.70;31.98
66396;BME280;72184;51.378;-1.342;2024-03-08T07:21:49;99529.80;;;19.70;32.00
66396;BME280;72184;51.378;-1.342;2024-03-08T07:24:16;99534.11;;;19.72;32.02
66396;BME280;72184;51.378;-1.342;2024-03-08T07:26:44;99535.21;;;19.71;32.03
66396;BME280;72184;51.378;-1.342;2024-03-08T07:29:11;99536.44;;;19.73;32.05
66396;BME280;72184;51.378;-1.342;2024-03-08T07:31:38;99533.32;;;19.74;32.07
66396;BME280;72184;51.378;-1.342;2024-03-08T07:34:05;99533.95;;;19.76;32.08
66396;BME280;72184;51.378;-1.342;2024-03-08T07:36:32;99528.41;;;19.77;32.10
66396;BME280;72184;51.378;-1.342;2024-03-08T07:38:59;99528.14;;;19.78;32.12
66396;BME280;72184;51.378;-1.342;2024-03-08T07:41:26;99525.02;;;19.78;32.14
66396;BME280;72184;51.378;-1.342;2024-03-08T07:43:53;99525.97;;;19.78;32.15
66396;BME280;72184;51.378;-1.342;2024-03-08T07:46:21;99522.91;;;20.06;32.16
66396;BME280;72184;51.378;-1.342;2024-03-08T07:48:48;99516.28;;;19.81;32.18
66396;BME280;72184;51.378;-1.342;2024-03-08T07:51:16;99514.43;;;19.82;32.20
66396;BME280;72184;51.378;-1.342;2024-03-08T07:53:43;99517.40;;;19.83;32.22
66396;BME280;72184;51.378;-1.342;2024-03-08T07:56:10;99520.21;;;19.85;32.23
66396;BME280;72184;51.378;-1.342;2024-03-08T07:58:38;99514.41;;;19.87;32.26
66396;BME280;72184;51.378;-1.342;2024-03-08T08:01:05;99505.65;;;19.89;32.26
66396;BME280;72184;51.378;-1.342;2024-03-08T08:03:32;99497.14;;;19.90;32.27
66396;BME280;72184;51.378;-1.342;2024-03-08T08:06:00;99496.61;;;19.91;32.29
66396;BME280;72184;51.378;-1.342;2024-03-08T08:08:27;99496.14;;;19.93;32.29
66396;BME280;72184;51.378;-1.342;2024-03-08T08:10:54;99492.56;;;19.72;32.30
66396;BME280;72184;51.378;-1.342;2024-03-08T08:13:21;99489.05;;;19.97;32.29
66396;BME280;72184;51.378;-1.342;2024-03-08T08:15:48;99484.69;;;19.98;32.29
66396;BME280;72184;51.378;-1.342;2024-03-08T08:18:15;99480.42;;;20.27;32.29
66396;BME280;72184;51.378;-1.342;2024-03-08T08:20:43;99477.41;;;20.04;32.27
66396;BME280;72184;51.378;-1.342;2024-03-08T08:23:10;99473.21;;;20.06;32.27
66396;BME280;72184;51.378;-1.342;2024-03-08T08:25:38;99465.35;;;20.07;32.27
66396;BME280;72184;51.378;-1.342;2024-03-08T08:28:06;99461.92;;;20.09;32.29
66396;BME280;72184;51.378;-1.342;2024-03-08T08:30:33;99457.75;;;19.90;32.28
66396;BME280;72184;51.378;-1.342;2024-03-08T08:33:00;99453.30;;;20.41;32.28
66396;BME280;72184;51.378;-1.342;2024-03-08T08:35:27;99448.56;;;20.16;32.31
66396;BME280;72184;51.378;-1.342;2024-03-08T08:37:55;99445.01;;;20.17;32.31
66396;BME280;72184;51.378;-1.342;2024-03-08T08:40:22;99434.89;;;20.19;32.31
66396;BME280;72184;51.378;-1.342;2024-03-08T08:42:49;99437.21;;;20.22;32.31
66396;BME280;72184;51.378;-1.342;2024-03-08T08:45:16;99435.13;;;20.24;32.29
66396;BME280;72184;51.378;-1.342;2024-03-08T08:47:44;99433.08;;;20.26;32.29
66396;BME280;72184;51.378;-1.342;2024-03-08T08:50:12;99433.98;;;19.81;32.29
66396;BME280;72184;51.378;-1.342;2024-03-08T08:52:40;99428.77;;;20.31;32.31
66396;BME280;72184;51.378;-1.342;2024-03-08T08:55:08;99427.46;;;20.36;32.30
66396;BME280;72184;51.378;-1.342;2024-03-08T08:57:35;99425.43;;;20.39;32.32
66396;BME280;72184;51.378;-1.342;2024-03-08T09:00:02;99424.06;;;20.41;32.33
66396;BME280;72184;51.378;-1.342;2024-03-08T09:02:30;99415.33;;;20.44;32.30
66396;BME280;72184;51.378;-1.342;2024-03-08T09:04:57;99414.08;;;20.26;32.30
66396;BME280;72184;51.378;-1.342;2024-03-08T09:07:24;99409.68;;;20.29;32.25
66396;BME280;72184;51.378;-1.342;2024-03-08T09:09:51;99402.43;;;20.56;32.23
66396;BME280;72184;51.378;-1.342;2024-03-08T09:12:18;99400.72;;;20.39;32.20
66396;BME280;72184;51.378;-1.342;2024-03-08T09:14:45;99395.18;;;20.41;32.18
66396;BME280;72184;51.378;-1.342;2024-03-08T09:17:12;99385.77;;;20.67;32.13
66396;BME280;72184;51.378;-1.342;2024-03-08T09:19:40;99378.33;;;20.48;32.12
66396;BME280;72184;51.378;-1.342;2024-03-08T09:22:07;99374.13;;;20.72;32.09
66396;BME280;72184;51.378;-1.342;2024-03-08T09:24:34;99368.24;;;20.52;32.06
66396;BME280;72184;51.378;-1.342;2024-03-08T09:27:01;99364.19;;;20.54;32.06
66396;BME280;72184;51.378;-1.342;2024-03-08T09:29:28;99357.43;;;20.78;32.05
66396;BME280;72184;51.378;-1.342;2024-03-08T09:31:55;99350.61;;;20.59;32.07
66396;BME280;72184;51.378;-1.342;2024-03-08T09:34:22;99349.56;;;20.63;32.02
66396;BME280;72184;51.378;-1.342;2024-03-08T09:36:49;99348.82;;;20.87;31.98
66396;BME280;72184;51.378;-1.342;2024-03-08T09:39:16;99344.67;;;20.69;31.97
66396;BME280;72184;51.378;-1.342;2024-03-08T09:41:44;99340.95;;;20.47;31.91
66396;BME280;72184;51.378;-1.342;2024-03-08T09:44:11;99335.21;;;20.78;31.86
66396;BME280;72184;51.378;-1.342;2024-03-08T09:46:39;99333.12;;;20.82;31.81
66396;BME280;72184;51.378;-1.342;2024-03-08T09:49:07;99331.98;;;20.86;31.76
66396;BME280;72184;51.378;-1.342;2024-03-08T09:51:35;99320.52;;;20.91;31.71
66396;BME280;72184;51.378;-1.342;2024-03-08T09:54:03;99316.13;;;20.69;31.64
66396;BME280;72184;51.378;-1.342;2024-03-08T09:56:32;99315.48;;;21.00;31.59
66396;BME280;72184;51.378;-1.342;2024-03-08T09:58:59;99308.87;;;21.04;31.55
66396;BME280;72184;51.378;-1.342;2024-03-08T10:01:26;99292.04;;;20.81;31.47
66396;BME280;72184;51.378;-1.342;2024-03-08T10:03:54;99292.28;;;20.86;31.43
66396;BME280;72184;51.378;-1.342;2024-03-08T10:06:23;99288.27;;;20.92;31.45
66396;BME280;72184;51.378;-1.342;2024-03-08T10:08:50;99281.45;;;20.99;31.41
66396;BME280;72184;51.378;-1.342;2024-03-08T10:11:17;99279.58;;;21.06;31.37
66396;BME280;72184;51.378;-1.342;2024-03-08T10:13:44;99272.19;;;21.13;31.31
66396;BME280;72184;51.378;-1.342;2024-03-08T10:16:12;99276.44;;;21.22;31.22
66396;BME280;72184;51.378;-1.342;2024-03-08T10:18:40;99271.30;;;21.30;31.16
66396;BME280;72184;51.378;-1.342;2024-03-08T10:21:08;99268.51;;;21.38;31.18
66396;BME280;72184;51.378;-1.342;2024-03-08T10:23:36;99269.82;;;21.46;31.14
66396;BME280;72184;51.378;-1.342;2024-03-08T10:26:11;99262.88;;;21.54;31.13
66396;BME280;72184;51.378;-1.342;2024-03-08T10:28:38;99261.07;;;21.41;31.17
66396;BME280;72184;51.378;-1.342;2024-03-08T10:31:05;99267.17;;;21.50;31.14
66396;BME280;72184;51.378;-1.342;2024-03-08T10:33:32;99257.09;;;21.80;31.11
66396;BME280;72184;51.378;-1.342;2024-03-08T10:35:59;99265.04;;;21.88;31.07
66396;BME280;72184;51.378;-1.342;2024-03-08T10:38:31;99259.34;;;21.72;31.01
66396;BME280;72184;51.378;-1.342;2024-03-08T10:41:00;99254.09;;;21.56;30.94
66396;BME280;72184;51.378;-1.342;2024-03-08T10:43:32;99250.52;;;21.62;30.93
66396;BME280;72184;51.378;-1.342;2024-03-08T10:46:19;99239.25;;;21.67;30.90
66396;BME280;72184;51.378;-1.342;2024-03-08T10:48:50;99237.55;;;21.95;30.86
66396;BME280;72184;51.378;-1.342;2024-03-08T10:51:19;99236.38;;;21.99;30.81
66396;BME280;72184;51.378;-1.342;2024-03-08T10:53:48;99229.24;;;21.81;30.79
66396;BME280;72184;51.378;-1.342;2024-03-08T10:56:16;99229.50;;;21.84;30.79
66396;BME280;72184;51.378;-1.342;2024-03-08T10:58:44;99227.57;;;21.87;30.77
66396;BME280;72184;51.378;-1.342;2024-03-08T11:01:11;99226.99;;;21.90;30.75
66396;BME280;72184;51.378;-1.342;2024-03-08T11:03:48;99217.83;;;21.93;30.69
66396;BME280;72184;51.378;-1.342;2024-03-08T11:06:17;99217.59;;;21.70;30.69
66396;BME280;72184;51.378;-1.342;2024-03-08T11:08:46;99202.58;;;21.99;30.60
66396;BME280;72184;51.378;-1.342;2024-03-08T11:11:31;99203.13;;;22.02;30.57
66396;BME280;72184;51.378;-1.342;2024-03-08T11:13:59;99197.36;;;22.05;30.49
66396;BME280;72184;51.378;-1.342;2024-03-08T11:16:44;99192.90;;;22.07;30.48
66396;BME280;72184;51.378;-1.342;2024-03-08T11:19:24;99192.42;;;22.09;30.46
66396;BME280;72184;51.378;-1.342;2024-03-08T11:22:00;99201.25;;;21.85;30.44
66396;BME280;72184;51.378;-1.342;2024-03-08T11:24:37;99194.62;;;22.14;30.39
66396;BME280;72184;51.378;-1.342;2024-03-08T11:27:05;99189.80;;;22.15;30.30
66396;BME280;72184;51.378;-1.342;2024-03-08T11:29:35;99184.72;;;22.18;30.27
66396;BME280;72184;51.378;-1.342;2024-03-08T11:32:06;99186.15;;;22.19;30.25
66396;BME280;72184;51.378;-1.342;2024-03-08T11:34:34;99186.60;;;22.19;30.23
66396;BME280;72184;51.378;-1.342;2024-03-08T11:37:04;99186.25;;;22.21;30.15
66396;BME280;72184;51.378;-1.342;2024-03-08T11:39:32;99186.86;;;22.22;30.16
66396;BME280;72184;51.378;-1.342;2024-03-08T11:41:59;99182.60;;;22.22;30.08
66396;BME280;72184;51.378;-1.342;2024-03-08T11:44:27;99179.19;;;22.22;30.00
66396;BME280;72184;51.378;-1.342;2024-03-08T11:46:54;99189.82;;;22.21;30.02
66396;BME280;72184;51.378;-1.342;2024-03-08T11:49:22;99181.87;;;21.94;30.00
66396;BME280;72184;51.378;-1.342;2024-03-08T11:51:52;99181.44;;;22.20;29.91
66396;BME280;72184;51.378;-1.342;2024-03-08T11:54:20;99172.48;;;22.21;30.01
66396;BME280;72184;51.378;-1.342;2024-03-08T11:56:47;99169.47;;;22.23;29.95
66396;BME280;72184;51.378;-1.342;2024-03-08T11:59:15;99166.19;;;22.24;29.88
66396;BME280;72184;51.378;-1.342;2024-03-08T12:01:42;99161.83;;;22.25;29.78
66396;BME280;72184;51.378;-1.342;2024-03-08T12:04:12;99164.56;;;22.25;29.73
66396;BME280;72184;51.378;-1.342;2024-03-08T12:06:40;99155.39;;;22.26;29.67
66396;BME280;72184;51.378;-1.342;2024-03-08T12:09:08;99155.74;;;22.28;29.57
66396;BME280;72184;51.378;-1.342;2024-03-08T12:11:35;99153.37;;;22.26;29.61
66396;BME280;72184;51.378;-1.342;2024-03-08T12:14:04;99152.33;;;22.25;29.63
66396;BME280;72184;51.378;-1.342;2024-03-08T12:16:32;99150.02;;;22.25;29.67
66396;BME280;72184;51.378;-1.342;2024-03-08T12:19:00;99151.07;;;22.23;29.61
66396;BME280;72184;51.378;-1.342;2024-03-08T12:21:27;99141.75;;;22.21;29.72
66396;BME280;72184;51.378;-1.342;2024-03-08T12:24:04;99141.76;;;22.20;29.69
66396;BME280;72184;51.378;-1.342;2024-03-08T12:26:32;99134.94;;;22.21;29.67
66396;BME280;72184;51.378;-1.342;2024-03-08T12:29:15;99136.51;;;22.24;29.71
66396;BME280;72184;51.378;-1.342;2024-03-08T12:31:42;99129.52;;;22.22;29.67
66396;BME280;72184;51.378;-1.342;2024-03-08T12:34:10;99124.45;;;21.94;29.73
66396;BME280;72184;51.378;-1.342;2024-03-08T12:36:44;99120.22;;;22.20;29.76
66396;BME280;72184;51.378;-1.342;2024-03-08T12:39:12;99111.78;;;22.20;29.76
66396;BME280;72184;51.378;-1.342;2024-03-08T12:41:40;99117.91;;;22.19;29.77
66396;BME280;72184;51.378;-1.342;2024-03-08T12:44:07;99118.61;;;22.19;29.74
66396;BME280;72184;51.378;-1.342;2024-03-08T12:46:35;99112.14;;;22.17;29.78
66396;BME280;72184;51.378;-1.342;2024-03-08T12:49:02;99114.71;;;21.90;29.73
66396;BME280;72184;51.378;-1.342;2024-03-08T12:51:29;99108.16;;;21.90;29.70
66396;BME280;72184;51.378;-1.342;2024-03-08T12:53:56;99099.23;;;22.16;29.69